| time (UTC) | temp C | wind direction | speed KPH | gust KPH | rain 1hr cm | rain 24hr cm | rain mn cm | humidity % | barometer mb |
| 20260504151114 | 26 | 64 | 9.7 | 17.7 | 0.00 | 0.00 | 0.00 | 47 | 1018.2 |
| 20260504150110 | 25 | 112 | 6.4 | 11.3 | 0.00 | 0.00 | 0.00 | 50 | 1018.3 |
| 20260504141050 | 23 | 50 | 8.0 | 16.1 | 0.00 | 0.00 | 0.00 | 53 | 1018.1 |
| 20260504100110 | 16 | 106 | 1.6 | 4.8 | 0.00 | 0.00 | 0.00 | 87 | 1016.4 |
| 20260504081057 | 17 | 111 | 1.6 | 3.2 | 0.00 | 0.00 | 0.00 | 85 | 1016.5 |
| 20260504080116 | 17 | 147 | 3.2 | 6.4 | 0.00 | 0.00 | 0.00 | 83 | 1016.5 |
| 20260504045053 | 20 | 80 | 3.2 | 4.8 | 0.00 | 0.00 | 0.00 | 72 | 1017.9 |
| 20260504044032 | 20 | 88 | 3.2 | 4.8 | 0.00 | 0.00 | 0.00 | 72 | 1018.0 |
| 20260504043051 | 20 | 77 | 3.2 | 3.2 | 0.00 | 0.00 | 0.00 | 71 | 1017.9 |
| 20260504042029 | 20 | 72 | 3.2 | 4.8 | 0.00 | 0.00 | 0.00 | 71 | 1017.9 |
| 20260504041028 | 20 | 62 | 3.2 | 6.4 | 0.00 | 0.00 | 0.00 | 71 | 1017.9 |
| 20260504040026 | 20 | 64 | 3.2 | 4.8 | 0.00 | 0.00 | 0.13 | 71 | 1018.0 |
| 20260504035025 | 20 | 65 | 3.2 | 6.4 | 0.00 | 0.00 | 0.13 | 71 | 1018.0 |
| 20260504034024 | 20 | 59 | 3.2 | 6.4 | 0.00 | 0.00 | 0.13 | 71 | 1018.1 |
| 20260504033022 | 20 | 68 | 3.2 | 4.8 | 0.00 | 0.00 | 0.13 | 71 | 1018.0 |
| 20260504032021 | 20 | 92 | 3.2 | 4.8 | 0.00 | 0.00 | 0.13 | 70 | 1018.0 |
| 20260504031020 | 20 | 79 | 1.6 | 4.8 | 0.00 | 0.00 | 0.13 | 71 | 1018.1 |
| 20260504030018 | 20 | 87 | 3.2 | 4.8 | 0.00 | 0.00 | 0.13 | 71 | 1018.0 |
| 20260504025057 | 20 | 119 | 1.6 | 8.0 | 0.00 | 0.00 | 0.13 | 71 | 1018.1 |
| 20260504024016 | 20 | 86 | 1.6 | 4.8 | 0.00 | 0.00 | 0.13 | 71 | 1017.9 |
| 20260504023135 | 20 | 136 | 3.2 | 6.4 | 0.00 | 0.00 | 0.13 | 70 | 1017.9 |
| 20260504022113 | 20 | 130 | 3.2 | 6.4 | 0.00 | 0.00 | 0.13 | 70 | 1017.8 |
| 20260504021132 | 20 | 93 | 1.6 | 4.8 | 0.00 | 0.00 | 0.13 | 70 | 1017.8 |
| 20260504020111 | 20 | 123 | 3.2 | 6.4 | 0.00 | 0.00 | 0.13 | 70 | 1017.5 |
| 20260504015149 | 20 | 104 | 3.2 | 6.4 | 0.00 | 0.00 | 0.13 | 70 | 1017.5 |
| 20260504014108 | 20 | 98 | 3.2 | 6.4 | 0.00 | 0.00 | 0.13 | 70 | 1017.5 |
| 20260504013107 | 20 | 84 | 3.2 | 6.4 | 0.00 | 0.00 | 0.13 | 70 | 1017.4 |
| 20260504012106 | 20 | 100 | 3.2 | 6.4 | 0.00 | 0.00 | 0.13 | 69 | 1017.3 |
| 20260504011104 | 20 | 96 | 1.6 | 3.2 | 0.00 | 0.00 | 0.13 | 69 | 1017.3 |
| 20260504005102 | 21 | 106 | 3.2 | 4.8 | 0.00 | 0.00 | 0.13 | 68 | 1017.0 |
| 20260504004101 | 21 | 83 | 3.2 | 8.0 | 0.00 | 0.00 | 0.13 | 68 | 1017.1 |
| 20260504003120 | 21 | 94 | 3.2 | 8.0 | 0.00 | 0.00 | 0.13 | 67 | 1017.0 |
| 20260504002118 | 21 | 80 | 4.8 | 9.7 | 0.00 | 0.00 | 0.13 | 66 | 1016.9 |
| 20260504001119 | 21 | 141 | 4.8 | 6.4 | 0.00 | 0.00 | 0.13 | 65 | 1016.7 |
| 20260504000055 | 21 | 113 | 3.2 | 9.7 | 0.00 | 0.00 | 0.13 | 65 | 1016.6 |
| 20260503235114 | 22 | 98 | 3.2 | 9.7 | 0.00 | 0.00 | 0.13 | 64 | 1016.5 |
| 20260503234053 | 22 | 127 | 3.2 | 6.4 | 0.00 | 0.00 | 0.13 | 63 | 1016.5 |
| 20260503233052 | 22 | 119 | 4.8 | 8.0 | 0.00 | 0.00 | 0.13 | 62 | 1016.5 |
| 20260503232131 | 22 | 49 | 6.4 | 14.5 | 0.00 | 0.00 | 0.13 | 61 | 1016.3 |
| 20260503231049 | 22 | 94 | 4.8 | 11.3 | 0.00 | 0.00 | 0.13 | 61 | 1016.4 |
| 20260503230048 | 23 | 83 | 3.2 | 8.0 | 0.00 | 0.00 | 0.13 | 61 | 1016.5 |
| 20260503225046 | 23 | 101 | 3.2 | 6.4 | 0.00 | 0.00 | 0.13 | 60 | 1016.4 |
| 20260503224045 | 23 | 95 | 4.8 | 9.7 | 0.00 | 0.00 | 0.13 | 61 | 1016.4 |
| 20260503223042 | 24 | 107 | 4.8 | 8.0 | 0.00 | 0.00 | 0.13 | 59 | 1016.4 |
| 20260503222040 | 25 | 102 | 4.8 | 6.4 | 0.00 | 0.00 | 0.13 | 57 | 1016.2 |
| 20260503221040 | 24 | 121 | 6.4 | 9.7 | 0.00 | 0.00 | 0.13 | 57 | 1016.2 |
| 20260503220038 | 24 | 60 | 6.4 | 11.3 | 0.00 | 0.00 | 0.13 | 58 | 1016.1 |
| 20260503215057 | 24 | 41 | 6.4 | 9.7 | 0.00 | 0.00 | 0.13 | 58 | 1016.2 |
| 20260503214036 | 24 | 44 | 6.4 | 11.3 | 0.00 | 0.00 | 0.13 | 57 | 1016.1 |
| 20260503213034 | 25 | 37 | 9.7 | 12.9 | 0.00 | 0.00 | 0.13 | 54 | 1016.1 |
| 20260503212033 | 25 | 81 | 6.4 | 9.7 | 0.00 | 0.00 | 0.13 | 56 | 1016.0 |
| 20260503211032 | 25 | 94 | 3.2 | 8.0 | 0.00 | 0.00 | 0.13 | 57 | 1016.1 |
| 20260503210031 | 25 | 49 | 4.8 | 9.7 | 0.00 | 0.00 | 0.13 | 55 | 1016.2 |
| 20260503205030 | 25 | 94 | 4.8 | 9.7 | 0.00 | 0.00 | 0.13 | 55 | 1016.1 |
| 20260503204049 | 25 | 71 | 4.8 | 9.7 | 0.00 | 0.00 | 0.13 | 54 | 1016.2 |
| 20260503203028 | 25 | 114 | 4.8 | 6.4 | 0.00 | 0.00 | 0.13 | 55 | 1016.4 |
| 20260503202026 | 26 | 102 | 4.8 | 12.9 | 0.00 | 0.00 | 0.13 | 52 | 1016.3 |
| 20260503201043 | 24 | 58 | 4.8 | 8.0 | 0.00 | 0.00 | 0.13 | 54 | 1016.5 |
| 20260503200021 | 25 | 79 | 8.0 | 14.5 | 0.00 | 0.00 | 0.13 | 53 | 1016.7 |
| 20260503195040 | 25 | 42 | 4.8 | 6.4 | 0.00 | 0.00 | 0.13 | 53 | 1016.7 |
| 20260503194018 | 25 | 69 | 3.2 | 9.7 | 0.00 | 0.00 | 0.13 | 54 | 1016.7 |
| 20260503193116 | 25 | 63 | 8.0 | 19.3 | 0.00 | 0.00 | 0.13 | 54 | 1017.0 |
| 20260503192153 | 25 | 61 | 8.0 | 11.3 | 0.00 | 0.00 | 0.13 | 54 | 1017.2 |
| 20260503191153 | 25 | 81 | 4.8 | 8.0 | 0.00 | 0.00 | 0.13 | 54 | 1017.3 |
| 20260503190110 | 24 | 74 | 4.8 | 9.7 | 0.00 | 0.00 | 0.13 | 56 | 1017.7 |
| 20260503185108 | 25 | 86 | 6.4 | 12.9 | 0.00 | 0.00 | 0.13 | 55 | 1017.6 |
| 20260503184107 | 25 | 31 | 8.0 | 14.5 | 0.00 | 0.00 | 0.13 | 55 | 1017.8 |
| 20260503183105 | 25 | 66 | 3.2 | 9.7 | 0.00 | 0.00 | 0.13 | 55 | 1017.9 |
| 20260503182104 | 25 | 70 | 6.4 | 17.7 | 0.00 | 0.00 | 0.13 | 56 | 1018.0 |
| 20260503181101 | 24 | 74 | 4.8 | 9.7 | 0.00 | 0.00 | 0.13 | 58 | 1018.2 |
| 20260503180100 | 24 | 80 | 6.4 | 9.7 | 0.00 | 0.00 | 0.13 | 60 | 1018.2 |
| 20260503175059 | 23 | 88 | 4.8 | 9.7 | 0.00 | 0.00 | 0.13 | 61 | 1018.4 |
| 20260503174057 | 23 | 62 | 6.4 | 11.3 | 0.00 | 0.00 | 0.13 | 61 | 1018.4 |
| 20260503173058 | 23 | 105 | 6.4 | 12.9 | 0.00 | 0.00 | 0.13 | 62 | 1018.5 |
| 20260503172053 | 23 | 44 | 6.4 | 11.3 | 0.00 | 0.00 | 0.13 | 63 | 1018.5 |
| 20260503171051 | 23 | 65 | 8.0 | 11.3 | 0.00 | 0.00 | 0.13 | 62 | 1018.6 |